sensor_id;sensor_type;location;lat;lon;timestamp;pressure;altitude;pressure_sealevel;temperature;humidity
73862;BME280;63459;51.456;-0.916;2023-07-13T00:02:25;100925.59;;;30.39;19.13
73862;BME280;63459;51.456;-0.916;2023-07-13T00:14:32;100928.21;;;30.60;19.17
73862;BME280;63459;51.456;-0.916;2023-07-13T00:16:57;100928.50;;;30.39;19.19
73862;BME280;63459;51.456;-0.916;2023-07-13T00:19:23;100926.05;;;30.77;19.23
73862;BME280;63459;51.456;-0.916;2023-07-13T00:21:49;100924.43;;;30.27;19.31
73862;BME280;63459;51.456;-0.916;2023-07-13T00:24:16;100927.30;;;30.23;19.34
73862;BME280;63459;51.456;-0.916;2023-07-13T00:26:39;100925.01;;;30.58;19.43
73862;BME280;63459;51.456;-0.916;2023-07-13T00:29:05;100922.67;;;30.51;19.50
73862;BME280;63459;51.456;-0.916;2023-07-13T00:31:30;100924.74;;;30.48;19.54
73862;BME280;63459;51.456;-0.916;2023-07-13T00:33:55;100923.67;;;30.03;19.55
73862;BME280;63459;51.456;-0.916;2023-07-13T00:36:20;100918.81;;;30.21;19.59
73862;BME280;63459;51.456;-0.916;2023-07-13T00:41:11;100922.85;;;29.95;19.63
73862;BME280;63459;51.456;-0.916;2023-07-13T00:43:37;100926.31;;;30.12;19.69
73862;BME280;63459;51.456;-0.916;2023-07-13T00:46:10;100924.11;;;29.68;19.70
73862;BME280;63459;51.456;-0.916;2023-07-13T00:48:32;100924.41;;;30.29;19.73
73862;BME280;63459;51.456;-0.916;2023-07-13T00:50:55;100928.21;;;29.64;19.75
73862;BME280;63459;51.456;-0.916;2023-07-13T00:53:18;100926.71;;;30.23;19.78
73862;BME280;63459;51.456;-0.916;2023-07-13T00:55:42;100926.37;;;30.39;19.81
73862;BME280;63459;51.456;-0.916;2023-07-13T00:58:07;100925.22;;;30.14;19.83
73862;BME280;63459;51.456;-0.916;2023-07-13T01:00:35;100922.24;;;29.83;19.89
73862;BME280;63459;51.456;-0.916;2023-07-13T01:02:59;100925.37;;;29.36;19.93
73862;BME280;63459;51.456;-0.916;2023-07-13T01:05:24;100925.63;;;30.20;19.95
73862;BME280;63459;51.456;-0.916;2023-07-13T01:07:51;100923.17;;;29.71;19.97
73862;BME280;63459;51.456;-0.916;2023-07-13T01:10:14;100924.20;;;29.54;19.93
73862;BME280;63459;51.456;-0.916;2023-07-13T01:12:39;100920.05;;;29.76;19.90
73862;BME280;63459;51.456;-0.916;2023-07-13T01:15:05;100921.98;;;30.15;19.93
73862;BME280;63459;51.456;-0.916;2023-07-13T01:19:55;100921.63;;;29.61;20.00
73862;BME280;63459;51.456;-0.916;2023-07-13T01:22:20;100924.53;;;29.79;20.01
73862;BME280;63459;51.456;-0.916;2023-07-13T01:27:14;100925.18;;;29.81;19.96
73862;BME280;63459;51.456;-0.916;2023-07-13T01:29:37;100924.45;;;29.74;19.99
73862;BME280;63459;51.456;-0.916;2023-07-13T01:32:01;100928.16;;;29.66;20.04
73862;BME280;63459;51.456;-0.916;2023-07-13T01:34:26;100924.16;;;29.66;20.01
73862;BME280;63459;51.456;-0.916;2023-07-13T01:39:18;100919.98;;;29.64;20.01
73862;BME280;63459;51.456;-0.916;2023-07-13T01:41:42;100923.51;;;29.66;19.96
73862;BME280;63459;51.456;-0.916;2023-07-13T01:44:08;100929.03;;;29.37;20.02
73862;BME280;63459;51.456;-0.916;2023-07-13T01:46:33;100927.61;;;29.72;20.06
73862;BME280;63459;51.456;-0.916;2023-07-13T01:48:58;100926.92;;;29.72;20.05
73862;BME280;63459;51.456;-0.916;2023-07-13T01:51:24;100925.11;;;29.33;20.00
73862;BME280;63459;51.456;-0.916;2023-07-13T01:53:49;100920.64;;;29.98;19.99
73862;BME280;63459;51.456;-0.916;2023-07-13T01:56:14;100923.65;;;29.71;20.01
73862;BME280;63459;51.456;-0.916;2023-07-13T01:58:39;100929.06;;;29.93;20.02
73862;BME280;63459;51.456;-0.916;2023-07-13T02:01:05;100927.80;;;29.32;19.98
73862;BME280;63459;51.456;-0.916;2023-07-13T02:03:30;100922.56;;;29.78;19.99
73862;BME280;63459;51.456;-0.916;2023-07-13T02:05:56;100921.53;;;29.36;19.98
73862;BME280;63459;51.456;-0.916;2023-07-13T02:08:21;100917.63;;;30.07;19.96
73862;BME280;63459;51.456;-0.916;2023-07-13T02:10:46;100911.91;;;29.66;19.98
73862;BME280;63459;51.456;-0.916;2023-07-13T02:13:11;100916.54;;;29.71;19.96
73862;BME280;63459;51.456;-0.916;2023-07-13T02:15:38;100914.23;;;29.75;19.92
73862;BME280;63459;51.456;-0.916;2023-07-13T02:18:03;100914.76;;;29.58;19.88
73862;BME280;63459;51.456;-0.916;2023-07-13T02:20:27;100911.27;;;29.54;19.91
73862;BME280;63459;51.456;-0.916;2023-07-13T02:22:52;100915.48;;;29.94;19.92
73862;BME280;63459;51.456;-0.916;2023-07-13T02:25:19;100913.76;;;29.72;19.91
73862;BME280;63459;51.456;-0.916;2023-07-13T02:27:43;100910.74;;;29.91;19.91
73862;BME280;63459;51.456;-0.916;2023-07-13T02:32:46;100899.85;;;29.65;19.95
73862;BME280;63459;51.456;-0.916;2023-07-13T02:34:58;100904.02;;;29.65;19.93
73862;BME280;63459;51.456;-0.916;2023-07-13T02:37:24;100903.15;;;29.80;19.97
73862;BME280;63459;51.456;-0.916;2023-07-13T02:39:49;100900.75;;;29.35;19.99
73862;BME280;63459;51.456;-0.916;2023-07-13T02:47:05;100901.00;;;29.69;20.01
73862;BME280;63459;51.456;-0.916;2023-07-13T02:49:31;100906.77;;;29.62;20.06
73862;BME280;63459;51.456;-0.916;2023-07-13T02:51:55;100916.70;;;29.38;20.07
73862;BME280;63459;51.456;-0.916;2023-07-13T02:54:20;100913.77;;;29.79;20.07
73862;BME280;63459;51.456;-0.916;2023-07-13T02:59:11;100912.08;;;29.76;20.07
73862;BME280;63459;51.456;-0.916;2023-07-13T03:01:36;100910.67;;;29.55;20.08
73862;BME280;63459;51.456;-0.916;2023-07-13T03:04:02;100905.06;;;29.54;20.07
73862;BME280;63459;51.456;-0.916;2023-07-13T03:06:27;100908.29;;;29.27;20.12
73862;BME280;63459;51.456;-0.916;2023-07-13T03:08:52;100906.22;;;29.45;20.16
73862;BME280;63459;51.456;-0.916;2023-07-13T03:11:18;100912.58;;;29.44;20.18
73862;BME280;63459;51.456;-0.916;2023-07-13T03:13:43;100912.80;;;29.21;20.18
73862;BME280;63459;51.456;-0.916;2023-07-13T03:16:09;100914.89;;;29.78;20.26
73862;BME280;63459;51.456;-0.916;2023-07-13T03:18:34;100917.82;;;29.07;20.31
73862;BME280;63459;51.456;-0.916;2023-07-13T03:20:58;100917.16;;;29.26;20.35
73862;BME280;63459;51.456;-0.916;2023-07-13T03:23:24;100917.75;;;29.32;20.34
73862;BME280;63459;51.456;-0.916;2023-07-13T03:25:49;100915.91;;;29.32;20.34
73862;BME280;63459;51.456;-0.916;2023-07-13T03:28:14;100917.35;;;29.10;20.37
73862;BME280;63459;51.456;-0.916;2023-07-13T03:30:39;100920.06;;;29.15;20.35
73862;BME280;63459;51.456;-0.916;2023-07-13T03:33:04;100921.68;;;29.40;20.37
73862;BME280;63459;51.456;-0.916;2023-07-13T03:35:30;100924.18;;;29.17;20.42
73862;BME280;63459;51.456;-0.916;2023-07-13T03:38:01;100924.07;;;29.62;20.41
73862;BME280;63459;51.456;-0.916;2023-07-13T03:40:21;100926.50;;;29.19;20.44
73862;BME280;63459;51.456;-0.916;2023-07-13T03:42:47;100924.20;;;29.44;20.44
73862;BME280;63459;51.456;-0.916;2023-07-13T03:47:36;100928.11;;;29.21;20.46
73862;BME280;63459;51.456;-0.916;2023-07-13T03:50:02;100930.10;;;29.79;20.50
73862;BME280;63459;51.456;-0.916;2023-07-13T03:52:27;100937.02;;;29.58;20.51
73862;BME280;63459;51.456;-0.916;2023-07-13T03:54:53;100935.84;;;28.92;20.53
73862;BME280;63459;51.456;-0.916;2023-07-13T03:57:18;100934.01;;;29.56;20.53
73862;BME280;63459;51.456;-0.916;2023-07-13T03:59:43;100934.06;;;29.13;20.55
73862;BME280;63459;51.456;-0.916;2023-07-13T04:02:09;100936.25;;;28.88;20.58
73862;BME280;63459;51.456;-0.916;2023-07-13T04:04:33;100936.94;;;29.34;20.56
73862;BME280;63459;51.456;-0.916;2023-07-13T04:06:59;100936.96;;;29.49;20.59
73862;BME280;63459;51.456;-0.916;2023-07-13T04:09:24;100935.68;;;29.45;20.63
73862;BME280;63459;51.456;-0.916;2023-07-13T04:11:49;100937.34;;;28.97;20.67
73862;BME280;63459;51.456;-0.916;2023-07-13T04:14:14;100948.51;;;29.41;20.66
73862;BME280;63459;51.456;-0.916;2023-07-13T04:16:40;100951.52;;;29.36;20.69
73862;BME280;63459;51.456;-0.916;2023-07-13T04:19:07;100947.07;;;29.12;20.71
73862;BME280;63459;51.456;-0.916;2023-07-13T04:21:31;100947.33;;;29.33;20.71
73862;BME280;63459;51.456;-0.916;2023-07-13T04:26:21;100945.55;;;29.54;20.69
73862;BME280;63459;51.456;-0.916;2023-07-13T04:31:12;100938.59;;;29.08;20.71
73862;BME280;63459;51.456;-0.916;2023-07-13T04:33:37;100944.30;;;29.31;20.70
73862;BME280;63459;51.456;-0.916;2023-07-13T04:38:30;100943.58;;;28.96;20.64
73862;BME280;63459;51.456;-0.916;2023-07-13T04:40:55;100948.93;;;29.42;20.63
73862;BME280;63459;51.456;-0.916;2023-07-13T04:43:19;100948.25;;;29.43;20.63
73862;BME280;63459;51.456;-0.916;2023-07-13T04:45:43;100944.23;;;29.25;20.64
73862;BME280;63459;51.456;-0.916;2023-07-13T04:48:08;100948.28;;;29.47;20.64
73862;BME280;63459;51.456;-0.916;2023-07-13T04:50:36;100947.91;;;29.49;20.63
73862;BME280;63459;51.456;-0.916;2023-07-13T04:52:59;100949.94;;;29.07;20.64
73862;BME280;63459;51.456;-0.916;2023-07-13T04:55:24;100952.89;;;29.18;20.58
73862;BME280;63459;51.456;-0.916;2023-07-13T04:57:51;100949.32;;;29.23;20.56
73862;BME280;63459;51.456;-0.916;2023-07-13T05:00:15;100949.55;;;29.71;20.56
73862;BME280;63459;51.456;-0.916;2023-07-13T05:02:43;100951.39;;;29.77;20.53
73862;BME280;63459;51.456;-0.916;2023-07-13T05:05:07;100947.55;;;29.43;20.50
73862;BME280;63459;51.456;-0.916;2023-07-13T05:07:31;100944.29;;;29.76;20.46
73862;BME280;63459;51.456;-0.916;2023-07-13T05:12:21;100954.75;;;29.57;20.40
73862;BME280;63459;51.456;-0.916;2023-07-13T05:14:46;100951.18;;;30.22;20.31
73862;BME280;63459;51.456;-0.916;2023-07-13T05:17:12;100950.44;;;30.16;20.24
73862;BME280;63459;51.456;-0.916;2023-07-13T05:19:37;100958.79;;;30.53;20.03
73862;BME280;63459;51.456;-0.916;2023-07-13T05:22:03;100962.63;;;31.14;19.56
73862;BME280;63459;51.456;-0.916;2023-07-13T05:24:28;100963.31;;;31.38;19.05
73862;BME280;63459;51.456;-0.916;2023-07-13T05:26:53;100959.45;;;32.52;18.32
73862;BME280;63459;51.456;-0.916;2023-07-13T05:29:19;100964.90;;;32.79;17.89
73862;BME280;63459;51.456;-0.916;2023-07-13T05:31:43;100972.55;;;33.51;17.42
73862;BME280;63459;51.456;-0.916;2023-07-13T05:34:08;100970.91;;;34.24;16.94
73862;BME280;63459;51.456;-0.916;2023-07-13T05:36:34;100967.33;;;34.30;16.54
73862;BME280;63459;51.456;-0.916;2023-07-13T05:38:59;100971.10;;;35.20;16.07
73862;BME280;63459;51.456;-0.916;2023-07-13T05:41:39;100977.72;;;35.42;15.64
73862;BME280;63459;51.456;-0.916;2023-07-13T05:43:49;100979.28;;;36.31;15.23
73862;BME280;63459;51.456;-0.916;2023-07-13T05:46:14;100982.30;;;36.54;14.84
73862;BME280;63459;51.456;-0.916;2023-07-13T05:48:39;100978.28;;;36.89;14.66
73862;BME280;63459;51.456;-0.916;2023-07-13T05:53:29;100984.68;;;37.21;14.05
73862;BME280;63459;51.456;-0.916;2023-07-13T05:55:55;100988.92;;;37.53;13.76
73862;BME280;63459;51.456;-0.916;2023-07-13T05:58:20;100993.52;;;38.05;13.59
73862;BME280;63459;51.456;-0.916;2023-07-13T06:03:15;100997.41;;;37.33;13.64
73862;BME280;63459;51.456;-0.916;2023-07-13T06:05:35;101003.96;;;37.68;13.48
73862;BME280;63459;51.456;-0.916;2023-07-13T06:07:59;101004.26;;;38.57;13.24
73862;BME280;63459;51.456;-0.916;2023-07-13T06:10:24;101010.53;;;38.55;13.25
73862;BME280;63459;51.456;-0.916;2023-07-13T06:12:49;101010.67;;;37.76;13.46
73862;BME280;63459;51.456;-0.916;2023-07-13T06:15:14;101007.88;;;36.61;13.77
73862;BME280;63459;51.456;-0.916;2023-07-13T06:17:39;101013.26;;;36.81;14.02
73862;BME280;63459;51.456;-0.916;2023-07-13T06:20:07;101014.05;;;36.38;14.37
73862;BME280;63459;51.456;-0.916;2023-07-13T06:22:30;101014.13;;;35.77;14.64
73862;BME280;63459;51.456;-0.916;2023-07-13T06:24:56;101020.49;;;35.36;15.02
73862;BME280;63459;51.456;-0.916;2023-07-13T06:27:21;101020.07;;;35.11;15.31
73862;BME280;63459;51.456;-0.916;2023-07-13T06:34:36;101023.53;;;34.12;16.22
73862;BME280;63459;51.456;-0.916;2023-07-13T06:37:02;101026.95;;;34.27;16.39
73862;BME280;63459;51.456;-0.916;2023-07-13T06:39:27;101036.00;;;33.84;16.62
73862;BME280;63459;51.456;-0.916;2023-07-13T06:41:52;101034.34;;;33.23;16.76
73862;BME280;63459;51.456;-0.916;2023-07-13T06:44:17;101033.62;;;33.79;16.86
73862;BME280;63459;51.456;-0.916;2023-07-13T06:46:43;101038.97;;;33.42;16.96
73862;BME280;63459;51.456;-0.916;2023-07-13T06:49:09;101040.18;;;33.30;17.10
73862;BME280;63459;51.456;-0.916;2023-07-13T06:51:34;101041.22;;;33.82;17.28
73862;BME280;63459;51.456;-0.916;2023-07-13T06:54:04;101041.41;;;33.28;17.33
73862;BME280;63459;51.456;-0.916;2023-07-13T06:56:24;101043.54;;;33.08;17.33
73862;BME280;63459;51.456;-0.916;2023-07-13T06:58:49;101041.98;;;33.09;17.36
73862;BME280;63459;51.456;-0.916;2023-07-13T07:01:15;101047.20;;;33.87;17.31
73862;BME280;63459;51.456;-0.916;2023-07-13T07:03:40;101047.97;;;33.40;17.25
73862;BME280;63459;51.456;-0.916;2023-07-13T07:06:12;101053.14;;;33.83;17.18
73862;BME280;63459;51.456;-0.916;2023-07-13T07:15:46;101063.03;;;34.09;17.00
73862;BME280;63459;51.456;-0.916;2023-07-13T07:18:11;101065.06;;;34.32;16.94
